sensor_id;sensor_type;location;lat;lon;timestamp;pressure;altitude;pressure_sealevel;temperature;humidity
59391;BME280;53405;57.012;40.984;2022-12-16T00:02:19;100068.63;;;-4.86;88.67
59391;BME280;53405;57.012;40.984;2022-12-16T00:05:07;100061.69;;;-5.01;88.28
59391;BME280;53405;57.012;40.984;2022-12-16T00:07:55;100070.31;;;-5.02;87.88
59391;BME280;53405;57.012;40.984;2022-12-16T00:10:42;100050.66;;;-5.03;89.28
59391;BME280;53405;57.012;40.984;2022-12-16T00:13:39;100057.91;;;-4.94;89.21
59391;BME280;53405;57.012;40.984;2022-12-16T00:16:27;100052.78;;;-4.94;89.00
59391;BME280;53405;57.012;40.984;2022-12-16T00:19:19;100049.00;;;-4.87;88.11
59391;BME280;53405;57.012;40.984;2022-12-16T00:22:06;100048.69;;;-4.81;88.44
59391;BME280;53405;57.012;40.984;2022-12-16T00:24:54;100045.84;;;-4.76;88.79
59391;BME280;53405;57.012;40.984;2022-12-16T00:27:42;100039.97;;;-4.78;88.33
59391;BME280;53405;57.012;40.984;2022-12-16T00:30:29;100028.28;;;-4.84;87.22
59391;BME280;53405;57.012;40.984;2022-12-16T00:33:18;100021.88;;;-4.93;87.87
59391;BME280;53405;57.012;40.984;2022-12-16T00:36:06;99993.91;;;-4.99;88.04
59391;BME280;53405;57.012;40.984;2022-12-16T00:38:54;100016.72;;;-4.93;88.06
59391;BME280;53405;57.012;40.984;2022-12-16T00:41:42;99987.75;;;-5.12;88.66
59391;BME280;53405;57.012;40.984;2022-12-16T00:44:29;100005.97;;;-4.83;88.39
59391;BME280;53405;57.012;40.984;2022-12-16T00:47:17;99997.44;;;-4.84;88.77
59391;BME280;53405;57.012;40.984;2022-12-16T00:50:05;100005.00;;;-4.81;88.29
59391;BME280;53405;57.012;40.984;2022-12-16T00:52:53;99999.31;;;-4.87;88.07
59391;BME280;53405;57.012;40.984;2022-12-16T00:55:41;99996.38;;;-4.80;88.27
59391;BME280;53405;57.012;40.984;2022-12-16T00:58:29;99999.09;;;-4.83;87.86
59391;BME280;53405;57.012;40.984;2022-12-16T01:01:16;100003.25;;;-4.80;88.41
59391;BME280;53405;57.012;40.984;2022-12-16T01:04:04;99991.31;;;-4.81;88.28
59391;BME280;53405;57.012;40.984;2022-12-16T01:06:51;99984.25;;;-4.78;88.19
59391;BME280;53405;57.012;40.984;2022-12-16T01:09:41;99983.59;;;-4.81;87.86
59391;BME280;53405;57.012;40.984;2022-12-16T01:12:29;99980.78;;;-4.77;88.96
59391;BME280;53405;57.012;40.984;2022-12-16T01:15:17;99977.63;;;-4.82;88.41
59391;BME280;53405;57.012;40.984;2022-12-16T01:18:04;99968.03;;;-4.78;88.02
59391;BME280;53405;57.012;40.984;2022-12-16T01:20:52;99975.56;;;-4.75;88.35
59391;BME280;53405;57.012;40.984;2022-12-16T01:23:40;99964.97;;;-4.69;87.49
59391;BME280;53405;57.012;40.984;2022-12-16T01:26:27;99966.41;;;-4.63;87.41
59391;BME280;53405;57.012;40.984;2022-12-16T01:29:15;99962.63;;;-4.74;88.18
59391;BME280;53405;57.012;40.984;2022-12-16T01:32:02;99953.53;;;-4.63;87.84
59391;BME280;53405;57.012;40.984;2022-12-16T01:34:52;99950.47;;;-4.54;87.34
59391;BME280;53405;57.012;40.984;2022-12-16T01:37:40;99948.97;;;-4.58;87.81
59391;BME280;53405;57.012;40.984;2022-12-16T01:40:28;99950.41;;;-4.37;87.40
59391;BME280;53405;57.012;40.984;2022-12-16T01:43:17;99943.75;;;-4.41;87.59
59391;BME280;53405;57.012;40.984;2022-12-16T01:46:12;99939.94;;;-4.33;87.31
59391;BME280;53405;57.012;40.984;2022-12-16T01:49:12;99939.75;;;-4.30;86.61
59391;BME280;53405;57.012;40.984;2022-12-16T01:52:07;99933.72;;;-4.45;86.63
59391;BME280;53405;57.012;40.984;2022-12-16T01:55:02;99936.44;;;-4.32;87.12
59391;BME280;53405;57.012;40.984;2022-12-16T01:58:17;99924.94;;;-4.41;86.78
59391;BME280;53405;57.012;40.984;2022-12-16T02:01:07;99923.59;;;-4.32;86.14
59391;BME280;53405;57.012;40.984;2022-12-16T02:03:56;99910.56;;;-4.29;87.90
59391;BME280;53405;57.012;40.984;2022-12-16T02:06:45;99922.13;;;-4.37;86.43
59391;BME280;53405;57.012;40.984;2022-12-16T02:09:32;99913.38;;;-4.18;87.28
59391;BME280;53405;57.012;40.984;2022-12-16T02:12:43;99904.44;;;-4.27;86.36
59391;BME280;53405;57.012;40.984;2022-12-16T02:15:51;99915.81;;;-4.47;86.42
59391;BME280;53405;57.012;40.984;2022-12-16T02:31:40;99895.22;;;-4.31;85.40
59391;BME280;53405;57.012;40.984;2022-12-16T02:41:16;99887.97;;;-4.08;84.53
59391;BME280;53405;57.012;40.984;2022-12-16T02:44:09;99888.00;;;-4.24;84.92
59391;BME280;53405;57.012;40.984;2022-12-16T02:46:58;99887.38;;;-4.13;84.85
59391;BME280;53405;57.012;40.984;2022-12-16T02:49:49;99876.06;;;-4.25;84.92
59391;BME280;53405;57.012;40.984;2022-12-16T02:52:36;99870.97;;;-4.11;84.67
59391;BME280;53405;57.012;40.984;2022-12-16T02:58:51;99876.97;;;-3.96;84.75
59391;BME280;53405;57.012;40.984;2022-12-16T03:07:36;99879.88;;;-4.02;84.89
59391;BME280;53405;57.012;40.984;2022-12-16T03:10:29;99869.34;;;-3.97;84.72
59391;BME280;53405;57.012;40.984;2022-12-16T03:13:20;99867.53;;;-3.95;84.43
59391;BME280;53405;57.012;40.984;2022-12-16T03:16:11;99862.78;;;-4.18;84.29
59391;BME280;53405;57.012;40.984;2022-12-16T03:19:03;99866.28;;;-4.04;85.47
59391;BME280;53405;57.012;40.984;2022-12-16T03:22:02;99858.44;;;-3.87;84.84
59391;BME280;53405;57.012;40.984;2022-12-16T03:24:52;99857.00;;;-3.76;85.04
59391;BME280;53405;57.012;40.984;2022-12-16T03:30:41;99858.34;;;-3.85;83.83
59391;BME280;53405;57.012;40.984;2022-12-16T03:33:38;99857.91;;;-3.77;83.90
59391;BME280;53405;57.012;40.984;2022-12-16T03:36:42;99847.38;;;-4.03;85.22
59391;BME280;53405;57.012;40.984;2022-12-16T03:39:34;99850.06;;;-3.90;85.19
59391;BME280;53405;57.012;40.984;2022-12-16T03:42:24;99852.00;;;-3.94;85.70
59391;BME280;53405;57.012;40.984;2022-12-16T03:45:15;99838.50;;;-3.83;85.54
59391;BME280;53405;57.012;40.984;2022-12-16T03:48:07;99850.09;;;-3.61;84.86
59391;BME280;53405;57.012;40.984;2022-12-16T03:50:55;99855.69;;;-3.84;83.95
59391;BME280;53405;57.012;40.984;2022-12-16T03:53:43;99843.00;;;-3.72;84.39
59391;BME280;53405;57.012;40.984;2022-12-16T03:56:30;99822.66;;;-3.91;83.86
59391;BME280;53405;57.012;40.984;2022-12-16T03:59:18;99845.22;;;-3.81;85.31
59391;BME280;53405;57.012;40.984;2022-12-16T04:02:06;99835.94;;;-3.83;85.30
59391;BME280;53405;57.012;40.984;2022-12-16T04:04:56;99836.59;;;-3.79;84.22
59391;BME280;53405;57.012;40.984;2022-12-16T04:07:43;99834.81;;;-3.93;84.38
59391;BME280;53405;57.012;40.984;2022-12-16T04:10:31;99813.41;;;-3.94;85.13
59391;BME280;53405;57.012;40.984;2022-12-16T04:13:37;99823.91;;;-3.68;85.30
59391;BME280;53405;57.012;40.984;2022-12-16T04:16:43;99819.97;;;-3.59;84.55
59391;BME280;53405;57.012;40.984;2022-12-16T04:19:49;99808.81;;;-3.46;83.53
59391;BME280;53405;57.012;40.984;2022-12-16T04:22:56;99812.25;;;-3.45;83.55
59391;BME280;53405;57.012;40.984;2022-12-16T04:26:02;99821.88;;;-3.63;83.58
59391;BME280;53405;57.012;40.984;2022-12-16T04:28:50;99808.63;;;-3.71;83.98
59391;BME280;53405;57.012;40.984;2022-12-16T04:31:38;99810.56;;;-3.75;84.88
59391;BME280;53405;57.012;40.984;2022-12-16T04:34:25;99820.19;;;-3.78;84.56
59391;BME280;53405;57.012;40.984;2022-12-16T04:37:13;99810.84;;;-3.79;84.69
59391;BME280;53405;57.012;40.984;2022-12-16T04:40:19;99814.97;;;-3.77;84.40
59391;BME280;53405;57.012;40.984;2022-12-16T04:43:46;99828.00;;;-3.80;86.15
59391;BME280;53405;57.012;40.984;2022-12-16T04:46:52;99831.25;;;-3.76;85.98
59391;BME280;53405;57.012;40.984;2022-12-16T04:49:58;99824.91;;;-3.71;85.34
59391;BME280;53405;57.012;40.984;2022-12-16T04:53:04;99831.53;;;-3.67;84.83
59391;BME280;53405;57.012;40.984;2022-12-16T04:56:11;99819.09;;;-3.89;85.27
59391;BME280;53405;57.012;40.984;2022-12-16T04:59:17;99829.94;;;-3.84;86.59
59391;BME280;53405;57.012;40.984;2022-12-16T05:02:24;99827.28;;;-3.53;85.62
59391;BME280;53405;57.012;40.984;2022-12-16T05:05:30;99831.19;;;-3.60;85.04
59391;BME280;53405;57.012;40.984;2022-12-16T05:08:36;99840.88;;;-3.80;84.63
59391;BME280;53405;57.012;40.984;2022-12-16T05:11:42;99831.59;;;-3.97;85.61
59391;BME280;53405;57.012;40.984;2022-12-16T05:14:48;99837.94;;;-3.88;86.45
59391;BME280;53405;57.012;40.984;2022-12-16T05:17:54;99833.47;;;-3.70;85.34
59391;BME280;53405;57.012;40.984;2022-12-16T05:21:01;99814.25;;;-3.50;85.43
59391;BME280;53405;57.012;40.984;2022-12-16T05:24:08;99844.41;;;-3.67;84.94
59391;BME280;53405;57.012;40.984;2022-12-16T05:27:13;99835.78;;;-3.66;84.65
59391;BME280;53405;57.012;40.984;2022-12-16T05:30:19;99840.75;;;-3.48;85.17
59391;BME280;53405;57.012;40.984;2022-12-16T05:33:26;99835.59;;;-3.63;85.86
59391;BME280;53405;57.012;40.984;2022-12-16T05:36:32;99844.69;;;-3.57;86.13
59391;BME280;53405;57.012;40.984;2022-12-16T05:39:37;99856.28;;;-3.64;86.69
59391;BME280;53405;57.012;40.984;2022-12-16T05:42:46;99851.31;;;-3.53;85.37
59391;BME280;53405;57.012;40.984;2022-12-16T05:45:54;99840.50;;;-3.88;86.56
59391;BME280;53405;57.012;40.984;2022-12-16T05:49:00;99847.53;;;-3.61;86.57
59391;BME280;53405;57.012;40.984;2022-12-16T05:52:06;99850.19;;;-3.49;85.70
59391;BME280;53405;57.012;40.984;2022-12-16T05:55:12;99865.72;;;-3.65;86.13
59391;BME280;53405;57.012;40.984;2022-12-16T05:58:20;99868.03;;;-3.74;86.57
59391;BME280;53405;57.012;40.984;2022-12-16T06:01:26;99864.47;;;-3.57;86.35
59391;BME280;53405;57.012;40.984;2022-12-16T06:04:35;99871.50;;;-3.75;86.44
59391;BME280;53405;57.012;40.984;2022-12-16T06:07:46;99873.00;;;-3.71;87.43
59391;BME280;53405;57.012;40.984;2022-12-16T06:10:54;99873.56;;;-3.52;87.34
59391;BME280;53405;57.012;40.984;2022-12-16T06:14:00;99877.16;;;-3.54;86.87
59391;BME280;53405;57.012;40.984;2022-12-16T06:17:06;99866.00;;;-3.55;86.30
59391;BME280;53405;57.012;40.984;2022-12-16T06:20:12;99879.47;;;-3.35;85.59
59391;BME280;53405;57.012;40.984;2022-12-16T06:23:19;99876.41;;;-3.56;85.85
59391;BME280;53405;57.012;40.984;2022-12-16T06:26:26;99873.00;;;-3.57;85.74
59391;BME280;53405;57.012;40.984;2022-12-16T06:29:32;99888.47;;;-3.42;85.70
59391;BME280;53405;57.012;40.984;2022-12-16T06:32:38;99891.31;;;-3.47;86.92
59391;BME280;53405;57.012;40.984;2022-12-16T06:35:44;99908.69;;;-3.51;86.98
59391;BME280;53405;57.012;40.984;2022-12-16T06:38:50;99887.16;;;-3.64;87.26
59391;BME280;53405;57.012;40.984;2022-12-16T06:41:57;99884.53;;;-3.48;86.89
59391;BME280;53405;57.012;40.984;2022-12-16T06:45:03;99900.44;;;-3.41;86.66
59391;BME280;53405;57.012;40.984;2022-12-16T06:48:11;99902.53;;;-3.48;86.62
59391;BME280;53405;57.012;40.984;2022-12-16T06:51:17;99904.41;;;-3.36;87.00
59391;BME280;53405;57.012;40.984;2022-12-16T06:54:23;99906.84;;;-3.34;86.49
59391;BME280;53405;57.012;40.984;2022-12-16T06:57:29;99911.34;;;-3.52;87.28
59391;BME280;53405;57.012;40.984;2022-12-16T07:00:35;99918.00;;;-3.34;87.09
59391;BME280;53405;57.012;40.984;2022-12-16T07:03:41;99910.91;;;-3.45;86.83
59391;BME280;53405;57.012;40.984;2022-12-16T07:06:47;99917.47;;;-3.39;88.41
59391;BME280;53405;57.012;40.984;2022-12-16T07:09:53;99914.88;;;-2.96;88.12
59391;BME280;53405;57.012;40.984;2022-12-16T07:13:01;99916.53;;;-3.09;86.33
59391;BME280;53405;57.012;40.984;2022-12-16T07:16:07;99921.75;;;-3.25;86.20
59391;BME280;53405;57.012;40.984;2022-12-16T07:19:14;99924.63;;;-3.30;87.69
59391;BME280;53405;57.012;40.984;2022-12-16T07:22:20;99925.28;;;-3.26;87.48
59391;BME280;53405;57.012;40.984;2022-12-16T07:25:27;99926.72;;;-3.36;87.02
59391;BME280;53405;57.012;40.984;2022-12-16T07:28:34;99934.38;;;-3.35;88.01
59391;BME280;53405;57.012;40.984;2022-12-16T07:31:40;99941.38;;;-3.22;87.52
59391;BME280;53405;57.012;40.984;2022-12-16T07:34:46;99941.09;;;-3.18;87.15
59391;BME280;53405;57.012;40.984;2022-12-16T07:37:52;99945.63;;;-3.21;87.49
59391;BME280;53405;57.012;40.984;2022-12-16T07:40:58;99950.03;;;-2.95;88.56
59391;BME280;53405;57.012;40.984;2022-12-16T07:44:04;99942.28;;;-3.09;87.02
59391;BME280;53405;57.012;40.984;2022-12-16T07:47:10;99965.97;;;-3.02;87.55
59391;BME280;53405;57.012;40.984;2022-12-16T07:50:16;99967.97;;;-3.08;87.12
59391;BME280;53405;57.012;40.984;2022-12-16T07:53:22;99976.91;;;-2.99;87.20
59391;BME280;53405;57.012;40.984;2022-12-16T07:56:29;99980.66;;;-3.04;87.23
59391;BME280;53405;57.012;40.984;2022-12-16T07:59:35;99964.47;;;-3.06;87.52
59391;BME280;53405;57.012;40.984;2022-12-16T08:02:41;99981.78;;;-2.94;87.43
59391;BME280;53405;57.012;40.984;2022-12-16T08:05:48;99973.69;;;-3.02;87.02
59391;BME280;53405;57.012;40.984;2022-12-16T08:08:54;99987.22;;;-2.99;87.58
59391;BME280;53405;57.012;40.984;2022-12-16T08:12:00;99988.69;;;-2.66;88.15
59391;BME280;53405;57.012;40.984;2022-12-16T08:15:06;99988.63;;;-2.93;86.98
59391;BME280;53405;57.012;40.984;2022-12-16T08:18:13;100000.19;;;-2.72;87.50
59391;BME280;53405;57.012;40.984;2022-12-16T08:21:19;99990.72;;;-2.85;87.26
59391;BME280;53405;57.012;40.984;2022-12-16T08:24:25;99989.53;;;-2.94;86.60
59391;BME280;53405;57.012;40.984;2022-12-16T08:27:35;99999.84;;;-2.94;87.21
59391;BME280;53405;57.012;40.984;2022-12-16T08:30:41;100015.03;;;-2.89;87.30
59391;BME280;53405;57.012;40.984;2022-12-16T08:34:09;100012.25;;;-2.86;87.38
59391;BME280;53405;57.012;40.984;2022-12-16T08:37:15;100016.78;;;-2.61;86.59
59391;BME280;53405;57.012;40.984;2022-12-16T08:40:22;100019.28;;;-2.74;86.44
59391;BME280;53405;57.012;40.984;2022-12-16T08:43:34;100033.81;;;-2.73;86.97
59391;BME280;53405;57.012;40.984;2022-12-16T08:46:40;100029.59;;;-2.74;86.77
59391;BME280;53405;57.012;40.984;2022-12-16T08:49:47;100034.09;;;-2.63;86.45
59391;BME280;53405;57.012;40.984;2022-12-16T08:52:54;100042.28;;;-2.57;86.03
59391;BME280;53405;57.012;40.984;2022-12-16T08:56:00;100048.44;;;-2.59;85.52
59391;BME280;53405;57.012;40.984;2022-12-16T08:59:06;100056.66;;;-2.67;85.10
59391;BME280;53405;57.012;40.984;2022-12-16T09:02:12;100074.31;;;-2.61;85.25
59391;BME280;53405;57.012;40.984;2022-12-16T09:05:18;100085.94;;;-2.68;85.28
59391;BME280;53405;57.012;40.984;2022-12-16T09:08:25;100094.22;;;-2.63;85.46
59391;BME280;53405;57.012;40.984;2022-12-16T09:11:31;100086.22;;;-2.44;84.66
59391;BME280;53405;57.012;40.984;2022-12-16T09:14:37;100095.78;;;-2.60;84.92
59391;BME280;53405;57.012;40.984;2022-12-16T09:17:43;100100.75;;;-2.72;85.30
59391;BME280;53405;57.012;40.984;2022-12-16T09:20:50;100114.69;;;-2.60;85.05
59391;BME280;53405;57.012;40.984;2022-12-16T09:23:57;100122.47;;;-2.76;85.51
59391;BME280;53405;57.012;40.984;2022-12-16T09:27:03;100120.00;;;-2.63;85.32
59391;BME280;53405;57.012;40.984;2022-12-16T09:30:09;100122.69;;;-2.36;84.95
59391;BME280;53405;57.012;40.984;2022-12-16T09:33:15;100132.19;;;-2.36;85.60
59391;BME280;53405;57.012;40.984;2022-12-16T09:36:22;100153.66;;;-2.36;84.00
59391;BME280;53405;57.012;40.984;2022-12-16T09:39:28;100132.19;;;-2.36;82.86
59391;BME280;53405;57.012;40.984;2022-12-16T09:42:54;100147.22;;;-2.14;81.96
59391;BME280;53405;57.012;40.984;2022-12-16T09:46:27;100153.75;;;-1.94;80.71
59391;BME280;53405;57.012;40.984;2022-12-16T09:49:45;100167.94;;;-2.01;79.37
59391;BME280;53405;57.012;40.984;2022-12-16T09:52:59;100168.03;;;-2.31;79.61
59391;BME280;53405;57.012;40.984;2022-12-16T09:56:15;100181.56;;;-1.85;76.39
59391;BME280;53405;57.012;40.984;2022-12-16T09:59:26;100185.91;;;-1.85;76.46
59391;BME280;53405;57.012;40.984;2022-12-16T10:02:33;100190.34;;;-2.16;77.47
59391;BME280;53405;57.012;40.984;2022-12-16T10:06:03;100203.44;;;-2.05;75.29
59391;BME280;53405;57.012;40.984;2022-12-16T10:09:27;100227.22;;;-2.14;73.45
59391;BME280;53405;57.012;40.984;2022-12-16T10:16:06;100229.34;;;-2.06;73.25
59391;BME280;53405;57.012;40.984;2022-12-16T10:23:09;100251.22;;;-2.42;71.75
59391;BME280;53405;57.012;40.984;2022-12-16T10:26:27;100264.28;;;-2.45;72.39
59391;BME280;53405;57.012;40.984;2022-12-16T10:33:40;100279.75;;;-2.76;73.32
59391;BME280;53405;57.012;40.984;2022-12-16T10:36:49;100289.47;;;-2.81;72.67
59391;BME280;53405;57.012;40.984;2022-12-16T10:39:58;100293.31;;;-2.88;75.06
59391;BME280;53405;57.012;40.984;2022-12-16T10:43:16;100320.97;;;-3.08;74.69
59391;BME280;53405;57.012;40.984;2022-12-16T10:46:27;100307.50;;;-2.81;75.40
59391;BME280;53405;57.012;40.984;2022-12-16T10:49:34;100335.13;;;-2.83;75.31
59391;BME280;53405;57.012;40.984;2022-12-16T10:53:08;100337.69;;;-2.83;74.45
59391;BME280;53405;57.012;40.984;2022-12-16T10:59:48;100358.72;;;-2.91;76.89
59391;BME280;53405;57.012;40.984;2022-12-16T11:02:54;100364.91;;;-2.61;77.22
59391;BME280;53405;57.012;40.984;2022-12-16T11:06:00;100358.72;;;-2.59;78.25
59391;BME280;53405;57.012;40.984;2022-12-16T11:09:24;100376.69;;;-2.73;78.01
59391;BME280;53405;57.012;40.984;2022-12-16T11:12:32;100375.13;;;-2.44;77.00
59391;BME280;53405;57.012;40.984;2022-12-16T11:15:38;100388.94;;;-2.77;75.04
59391;BME280;53405;57.012;40.984;2022-12-16T11:18:49;100396.19;;;-2.67;74.86
59391;BME280;53405;57.012;40.984;2022-12-16T11:22:17;100402.06;;;-2.65;74.20
59391;BME280;53405;57.012;40.984;2022-12-16T11:25:24;100414.06;;;-2.64;73.68
59391;BME280;53405;57.012;40.984;2022-12-16T11:28:30;100421.00;;;-2.98;74.08
59391;BME280;53405;57.012;40.984;2022-12-16T11:31:37;100431.78;;;-3.08;75.60
59391;BME280;53405;57.012;40.984;2022-12-16T11:34:53;100428.88;;;-2.68;75.41
59391;BME280;53405;57.012;40.984;2022-12-16T11:38:03;100431.91;;;-2.93;74.65
59391;BME280;53405;57.012;40.984;2022-12-16T11:41:28;100445.81;;;-2.80;73.97
59391;BME280;53405;57.012;40.984;2022-12-16T11:44:42;100453.47;;;-2.78;75.62
59391;BME280;53405;57.012;40.984;2022-12-16T11:48:28;100472.72;;;-2.85;76.99
59391;BME280;53405;57.012;40.984;2022-12-16T11:51:56;100483.84;;;-2.67;74.02
59391;BME280;53405;57.012;40.984;2022-12-16T11:55:26;100488.25;;;-2.69;75.49
59391;BME280;53405;57.012;40.984;2022-12-16T11:58:57;100482.34;;;-3.05;74.75
59391;BME280;53405;57.012;40.984;2022-12-16T12:02:14;100500.16;;;-3.00;73.05
59391;BME280;53405;57.012;40.984;2022-12-16T12:05:32;100498.41;;;-3.17;72.78
59391;BME280;53405;57.012;40.984;2022-12-16T12:12:27;100519.41;;;-3.42;73.56
59391;BME280;53405;57.012;40.984;2022-12-16T12:15:43;100545.56;;;-3.15;73.57
59391;BME280;53405;57.012;40.984;2022-12-16T12:22:29;100554.66;;;-3.25;75.15
59391;BME280;53405;57.012;40.984;2022-12-16T12:25:52;100568.13;;;-3.20;73.93
59391;BME280;53405;57.012;40.984;2022-12-16T12:35:50;100598.16;;;-2.84;74.82
59391;BME280;53405;57.012;40.984;2022-12-16T12:39:28;100621.50;;;-2.87;74.34
59391;BME280;53405;57.012;40.984;2022-12-16T12:42:49;100637.16;;;-3.27;76.27
59391;BME280;53405;57.012;40.984;2022-12-16T12:46:05;100640.00;;;-3.51;75.61
59391;BME280;53405;57.012;40.984;2022-12-16T12:49:28;100637.78;;;-3.22;74.17
59391;BME280;53405;57.012;40.984;2022-12-16T13:05:56;100680.66;;;-3.76;72.80
59391;BME280;53405;57.012;40.984;2022-12-16T13:09:29;100701.38;;;-3.41;72.23
59391;BME280;53405;57.012;40.984;2022-12-16T13:12:35;100687.53;;;-3.58;71.65
59391;BME280;53405;57.012;40.984;2022-12-16T13:15:41;100707.44;;;-3.81;72.75
59391;BME280;53405;57.012;40.984;2022-12-16T13:22:36;100710.34;;;-3.88;71.32
59391;BME280;53405;57.012;40.984;2022-12-16T13:25:50;100724.28;;;-3.73;70.85
59391;BME280;53405;57.012;40.984;2022-12-16T13:29:29;100735.97;;;-4.06;69.64
59391;BME280;53405;57.012;40.984;2022-12-16T13:32:36;100725.75;;;-4.07;69.45
59391;BME280;53405;57.012;40.984;2022-12-16T13:35:53;100748.84;;;-4.06;69.89
59391;BME280;53405;57.012;40.984;2022-12-16T13:39:20;100749.09;;;-4.12;70.55
59391;BME280;53405;57.012;40.984;2022-12-16T13:53:02;100777.72;;;-3.99;71.07
59391;BME280;53405;57.012;40.984;2022-12-16T13:56:12;100780.19;;;-3.77;70.58
59391;BME280;53405;57.012;40.984;2022-12-16T13:59:22;100786.97;;;-3.74;69.55
59391;BME280;53405;57.012;40.984;2022-12-16T14:02:38;100789.25;;;-4.08;70.82
59391;BME280;53405;57.012;40.984;2022-12-16T14:05:45;100803.38;;;-3.97;69.00
59391;BME280;53405;57.012;40.984;2022-12-16T14:08:52;100802.56;;;-4.19;69.63
59391;BME280;53405;57.012;40.984;2022-12-16T14:12:10;100788.63;;;-4.13;69.89
59391;BME280;53405;57.012;40.984;2022-12-16T14:15:26;100811.41;;;-3.64;69.02
59391;BME280;53405;57.012;40.984;2022-12-16T14:19:32;100821.53;;;-4.01;69.19
59391;BME280;53405;57.012;40.984;2022-12-16T14:25:21;100834.31;;;-3.78;71.59
59391;BME280;53405;57.012;40.984;2022-12-16T14:28:30;100851.31;;;-4.15;71.83
59391;BME280;53405;57.012;40.984;2022-12-16T14:31:39;100857.13;;;-3.90;73.35
59391;BME280;53405;57.012;40.984;2022-12-16T14:34:46;100861.31;;;-3.87;72.19
59391;BME280;53405;57.012;40.984;2022-12-16T14:37:52;100864.69;;;-4.07;73.21
59391;BME280;53405;57.012;40.984;2022-12-16T14:40:58;100848.81;;;-3.76;72.20
59391;BME280;53405;57.012;40.984;2022-12-16T14:44:14;100876.81;;;-3.68;71.14
59391;BME280;53405;57.012;40.984;2022-12-16T14:47:21;100871.47;;;-3.84;71.26
59391;BME280;53405;57.012;40.984;2022-12-16T14:50:28;100859.41;;;-3.63;70.92
59391;BME280;53405;57.012;40.984;2022-12-16T14:53:35;100889.00;;;-3.72;71.96
59391;BME280;53405;57.012;40.984;2022-12-16T14:56:41;100886.91;;;-3.64;71.28
59391;BME280;53405;57.012;40.984;2022-12-16T14:59:57;100888.59;;;-3.63;72.01
59391;BME280;53405;57.012;40.984;2022-12-16T15:03:38;100890.66;;;-3.71;69.70
59391;BME280;53405;57.012;40.984;2022-12-16T15:06:47;100903.28;;;-4.07;70.24
59391;BME280;53405;57.012;40.984;2022-12-16T15:09:55;100889.22;;;-3.98;69.30
59391;BME280;53405;57.012;40.984;2022-12-16T15:13:01;100902.88;;;-4.19;70.26
59391;BME280;53405;57.012;40.984;2022-12-16T15:16:14;100903.97;;;-4.24;71.17
59391;BME280;53405;57.012;40.984;2022-12-16T15:19:22;100923.28;;;-4.14;72.02
59391;BME280;53405;57.012;40.984;2022-12-16T15:22:30;100935.44;;;-4.18;71.77
59391;BME280;53405;57.012;40.984;2022-12-16T15:25:37;100941.31;;;-4.14;72.55
59391;BME280;53405;57.012;40.984;2022-12-16T15:28:48;100943.50;;;-4.27;70.46
59391;BME280;53405;57.012;40.984;2022-12-16T15:31:54;100950.00;;;-4.40;71.24
59391;BME280;53405;57.012;40.984;2022-12-16T15:35:00;100939.44;;;-4.32;71.98
59391;BME280;53405;57.012;40.984;2022-12-16T15:38:28;100958.09;;;-4.27;71.43
59391;BME280;53405;57.012;40.984;2022-12-16T15:41:36;100937.41;;;-4.24;72.82
59391;BME280;53405;57.012;40.984;2022-12-16T15:44:46;100964.16;;;-4.28;72.66
59391;BME280;53405;57.012;40.984;2022-12-16T15:47:54;100952.28;;;-4.32;70.85
59391;BME280;53405;57.012;40.984;2022-12-16T15:51:00;100979.22;;;-4.41;74.25
59391;BME280;53405;57.012;40.984;2022-12-16T15:54:19;101001.06;;;-4.29;74.68
59391;BME280;53405;57.012;40.984;2022-12-16T15:57:31;100994.22;;;-4.30;75.28
59391;BME280;53405;57.012;40.984;2022-12-16T16:00:38;101004.34;;;-4.26;74.09
59391;BME280;53405;57.012;40.984;2022-12-16T16:03:50;101010.06;;;-3.95;73.11
59391;BME280;53405;57.012;40.984;2022-12-16T16:06:57;101025.91;;;-3.84;72.10
59391;BME280;53405;57.012;40.984;2022-12-16T16:10:20;101016.03;;;-3.73;72.10
59391;BME280;53405;57.012;40.984;2022-12-16T16:13:26;101026.09;;;-3.67;71.87
59391;BME280;53405;57.012;40.984;2022-12-16T16:16:32;101003.47;;;-4.03;71.88
59391;BME280;53405;57.012;40.984;2022-12-16T16:19:39;101024.19;;;-4.29;73.75
59391;BME280;53405;57.012;40.984;2022-12-16T16:22:49;101030.09;;;-4.04;73.40
59391;BME280;53405;57.012;40.984;2022-12-16T16:25:56;101033.41;;;-4.00;73.11
59391;BME280;53405;57.012;40.984;2022-12-16T16:29:03;101038.06;;;-3.88;73.40
59391;BME280;53405;57.012;40.984;2022-12-16T16:32:09;101048.59;;;-3.94;71.34
59391;BME280;53405;57.012;40.984;2022-12-16T16:35:16;101013.22;;;-3.89;71.69
59391;BME280;53405;57.012;40.984;2022-12-16T16:38:22;101035.81;;;-3.73;72.08
59391;BME280;53405;57.012;40.984;2022-12-16T16:41:27;101035.84;;;-3.75;72.02
59391;BME280;53405;57.012;40.984;2022-12-16T16:44:34;101043.94;;;-3.84;72.35
59391;BME280;53405;57.012;40.984;2022-12-16T16:47:40;101038.38;;;-3.73;72.49
59391;BME280;53405;57.012;40.984;2022-12-16T16:50:46;101034.22;;;-4.00;73.70
59391;BME280;53405;57.012;40.984;2022-12-16T16:53:53;101047.97;;;-4.01;74.24
59391;BME280;53405;57.012;40.984;2022-12-16T16:57:00;101048.75;;;-4.21;74.04
59391;BME280;53405;57.012;40.984;2022-12-16T17:00:07;101051.38;;;-4.22;73.37
59391;BME280;53405;57.012;40.984;2022-12-16T17:03:14;101060.53;;;-4.15;72.95
59391;BME280;53405;57.012;40.984;2022-12-16T17:06:28;101064.09;;;-4.18;75.81
59391;BME280;53405;57.012;40.984;2022-12-16T17:09:34;101070.16;;;-3.74;73.92
59391;BME280;53405;57.012;40.984;2022-12-16T17:12:41;101064.53;;;-3.84;73.64
59391;BME280;53405;57.012;40.984;2022-12-16T17:15:50;101073.03;;;-3.82;73.69
59391;BME280;53405;57.012;40.984;2022-12-16T17:18:56;101085.16;;;-4.08;72.04
59391;BME280;53405;57.012;40.984;2022-12-16T17:22:03;101081.34;;;-4.45;72.82
59391;BME280;53405;57.012;40.984;2022-12-16T17:25:10;101086.44;;;-4.68;75.07
59391;BME280;53405;57.012;40.984;2022-12-16T17:28:16;101067.19;;;-4.57;76.00
59391;BME280;53405;57.012;40.984;2022-12-16T17:31:22;101084.38;;;-4.10;76.25
59391;BME280;53405;57.012;40.984;2022-12-16T17:34:28;101080.75;;;-3.82;73.12